Time;durP1;ratioP1;P1;durP2;ratioP2;P2;SDS_P1;SDS_P2;PMS_P1;PMS_P2;Temp;Humidity;BMP_temperature;BMP_pressure;BME280_temperature;BME280_humidity;BME280_pressure;Samples;Min_cycle;Max_cycle;Signal;HPM_P1;HPM_P2
2023/11/16 00:02:27;;;;;;;2.60;1.20;;;;;;;;;;4851639;29;20215;-84
2023/11/16 00:05:35;;;;;;;3.43;1.53;;;;;;;;;;4862289;29;20199;-84
2023/11/16 00:08:39;;;;;;;2.30;1.30;;;;;;;;;;4862514;29;20191;-84
2023/11/16 00:11:44;;;;;;;5.60;1.70;;;;;;;;;;4862910;29;20191;-84
2023/11/16 00:14:48;;;;;;;8.13;1.30;;;;;;;;;;4873542;29;20195;-84
2023/11/16 00:17:53;;;;;;;2.33;1.33;;;;;;;;;;4862510;29;20194;-84
2023/11/16 00:20:57;;;;;;;3.40;1.27;;;;;;;;;;4873254;29;20195;-84
2023/11/16 00:24:05;;;;;;;4.83;1.57;;;;;;;;;;4873493;29;20175;-84
2023/11/16 00:27:11;;;;;;;2.47;1.30;;;;;;;;;;4861789;29;20589;-84
2023/11/16 00:30:21;;;;;;;3.07;1.80;;;;;;;;;;4862170;29;20187;-84
2023/11/16 00:33:25;;;;;;;2.27;1.30;;;;;;;;;;4861645;29;20187;-84
2023/11/16 00:36:30;;;;;;;4.70;1.30;;;;;;;;;;4861657;29;20230;-84
2023/11/16 00:39:34;;;;;;;3.93;1.27;;;;;;;;;;4872678;29;20195;-84
2023/11/16 00:42:39;;;;;;;3.53;1.50;;;;;;;;;;4860701;29;20679;-84
2023/11/16 00:45:43;;;;;;;7.60;1.50;;;;;;;;;;4860748;29;20234;-84
2023/11/16 00:48:47;;;;;;;5.60;1.33;;;;;;;;;;4849632;29;20195;-84
2023/11/16 00:51:52;;;;;;;7.83;1.33;;;;;;;;;;4860297;29;20183;-84
2023/11/16 00:54:57;;;;;;;5.07;1.30;;;;;;;;;;4860611;29;20191;-84
2023/11/16 00:58:03;;;;;;;2.50;1.40;;;;;;;;;;4870187;29;20191;-84
2023/11/16 01:01:07;;;;;;;6.50;1.50;;;;;;;;;;4870952;29;20543;-84
2023/11/16 01:04:11;;;;;;;2.80;1.30;;;;;;;;;;4849384;29;20179;-84
2023/11/16 01:07:16;;;;;;;5.70;1.53;;;;;;;;;;4859604;29;20580;-84
2023/11/16 01:10:24;;;;;;;7.03;1.60;;;;;;;;;;4859858;29;20195;-84
2023/11/16 01:13:38;;;;;;;5.17;1.40;;;;;;;;;;4848251;29;20191;-84
2023/11/16 01:16:45;;;;;;;4.73;1.40;;;;;;;;;;4859163;29;20223;-84
2023/11/16 01:19:51;;;;;;;4.27;1.70;;;;;;;;;;4869215;29;20191;-84
2023/11/16 01:23:10;;;;;;;4.10;1.17;;;;;;;;;;4858322;29;20215;-84
2023/11/16 01:26:17;;;;;;;3.87;1.57;;;;;;;;;;4869396;29;20227;-84
2023/11/16 01:29:22;;;;;;;6.27;1.20;;;;;;;;;;4857758;29;20191;-84
2023/11/16 01:32:26;;;;;;;6.63;1.63;;;;;;;;;;4857796;29;20191;-84
2023/11/16 01:35:31;;;;;;;3.83;1.20;;;;;;;;;;4869160;29;20191;-84
2023/11/16 01:38:39;;;;;;;4.80;1.40;;;;;;;;;;4846966;29;20195;-84
2023/11/16 01:41:43;;;;;;;4.20;1.20;;;;;;;;;;4857852;29;20191;-84
2023/11/16 01:44:47;;;;;;;4.33;1.43;;;;;;;;;;4868205;29;20266;-84
2023/11/16 01:47:51;;;;;;;6.10;1.27;;;;;;;;;;4857083;29;20195;-84
2023/11/16 01:50:58;;;;;;;1.47;1.13;;;;;;;;;;4869181;29;20195;-84
2023/11/16 01:54:05;;;;;;;6.20;1.30;;;;;;;;;;4856637;29;20196;-84
2023/11/16 01:57:11;;;;;;;4.83;1.60;;;;;;;;;;4857554;29;20238;-84
2023/11/16 02:00:16;;;;;;;5.63;0.97;;;;;;;;;;4856969;29;20194;-84
2023/11/16 02:03:20;;;;;;;4.93;1.30;;;;;;;;;;4867818;29;20215;-84
2023/11/16 02:06:24;;;;;;;2.77;1.13;;;;;;;;;;4844069;29;20235;-84
2023/11/16 02:09:29;;;;;;;4.17;1.40;;;;;;;;;;4867064;29;20191;-84
2023/11/16 02:12:33;;;;;;;3.37;1.50;;;;;;;;;;4865964;29;20187;-84
2023/11/16 02:15:37;;;;;;;3.50;1.10;;;;;;;;;;4856929;29;20205;-84
2023/11/16 02:18:41;;;;;;;2.90;1.30;;;;;;;;;;4855738;29;20195;-84
2023/11/16 02:21:48;;;;;;;3.80;1.37;;;;;;;;;;4845864;29;20556;-84
2023/11/16 02:24:53;;;;;;;11.07;1.93;;;;;;;;;;4866901;29;20649;-84
2023/11/16 02:27:57;;;;;;;3.37;1.83;;;;;;;;;;4846570;29;20191;-84
2023/11/16 02:31:02;;;;;;;6.33;1.77;;;;;;;;;;4845790;29;20190;-84
2023/11/16 02:34:06;;;;;;;4.93;1.47;;;;;;;;;;4834619;29;20191;-84
2023/11/16 02:37:11;;;;;;;3.53;1.40;;;;;;;;;;4856368;29;20231;-84
2023/11/16 02:40:16;;;;;;;5.53;1.40;;;;;;;;;;4856090;29;20190;-84
2023/11/16 02:43:21;;;;;;;2.20;1.10;;;;;;;;;;4845206;29;20218;-84
2023/11/16 02:46:26;;;;;;;5.77;1.30;;;;;;;;;;4845628;29;20231;-84
2023/11/16 02:49:30;;;;;;;2.73;1.20;;;;;;;;;;4855646;29;20187;-84
2023/11/16 02:52:34;;;;;;;4.03;1.30;;;;;;;;;;4844872;29;20187;-84
2023/11/16 02:55:39;;;;;;;5.50;1.30;;;;;;;;;;4843889;29;20207;-84
2023/11/16 02:58:43;;;;;;;5.57;1.87;;;;;;;;;;4853141;29;20195;-86
2023/11/16 03:01:48;;;;;;;4.17;1.53;;;;;;;;;;4862522;29;20191;-86
2023/11/16 03:04:52;;;;;;;3.23;1.40;;;;;;;;;;4852180;29;20179;-86
2023/11/16 03:07:56;;;;;;;2.60;1.17;;;;;;;;;;4862808;29;20574;-86
2023/11/16 03:11:02;;;;;;;5.77;1.43;;;;;;;;;;4862785;29;20544;-86
2023/11/16 03:14:08;;;;;;;7.27;1.30;;;;;;;;;;4851718;29;20187;-86
2023/11/16 03:17:12;;;;;;;5.50;1.37;;;;;;;;;;4864009;29;20222;-86
2023/11/16 03:20:16;;;;;;;4.40;1.43;;;;;;;;;;4852634;29;20203;-86
2023/11/16 03:23:21;;;;;;;5.03;1.50;;;;;;;;;;4841575;29;20211;-86
2023/11/16 03:26:27;;;;;;;3.60;1.20;;;;;;;;;;4851527;29;20226;-86
2023/11/16 03:29:34;;;;;;;5.37;1.43;;;;;;;;;;4851945;29;20544;-86
2023/11/16 03:32:38;;;;;;;5.50;1.47;;;;;;;;;;4851627;29;20183;-86
2023/11/16 03:35:48;;;;;;;4.87;1.63;;;;;;;;;;4840985;29;20223;-86
2023/11/16 03:38:52;;;;;;;4.00;1.20;;;;;;;;;;4840864;29;20187;-86
2023/11/16 03:42:01;;;;;;;4.83;1.37;;;;;;;;;;4841164;29;20217;-86
2023/11/16 03:45:06;;;;;;;7.23;1.40;;;;;;;;;;4841542;29;20187;-86
2023/11/16 03:48:11;;;;;;;5.80;2.10;;;;;;;;;;4841039;29;20195;-86
2023/11/16 03:51:17;;;;;;;3.50;1.50;;;;;;;;;;4841138;29;20190;-86
2023/11/16 03:54:21;;;;;;;8.80;1.40;;;;;;;;;;4851226;29;20191;-86
2023/11/16 03:57:25;;;;;;;5.33;1.40;;;;;;;;;;4850931;29;20234;-86
2023/11/16 04:00:31;;;;;;;6.63;1.50;;;;;;;;;;4851468;29;20648;-86
2023/11/16 04:03:35;;;;;;;4.23;1.10;;;;;;;;;;4840739;29;20554;-86
2023/11/16 04:06:40;;;;;;;3.97;1.40;;;;;;;;;;4861536;29;20704;-85
2023/11/16 04:09:44;;;;;;;2.93;1.10;;;;;;;;;;4851526;29;20194;-86
2023/11/16 04:12:48;;;;;;;5.63;1.20;;;;;;;;;;4861900;29;20187;-86
2023/11/16 04:15:53;;;;;;;5.30;1.30;;;;;;;;;;4851033;29;20226;-86
2023/11/16 04:18:58;;;;;;;6.37;1.30;;;;;;;;;;4850976;29;20637;-86
2023/11/16 04:22:03;;;;;;;3.57;1.10;;;;;;;;;;4840545;29;20187;-86
2023/11/16 04:25:11;;;;;;;4.77;1.23;;;;;;;;;;4851310;29;20179;-86
2023/11/16 04:28:15;;;;;;;2.87;1.10;;;;;;;;;;4851116;29;20195;-86
2023/11/16 04:31:20;;;;;;;6.70;1.53;;;;;;;;;;4840432;29;20190;-86
2023/11/16 04:34:26;;;;;;;3.23;1.20;;;;;;;;;;4840498;29;20183;-86
2023/11/16 04:37:32;;;;;;;5.83;1.07;;;;;;;;;;4840274;29;20222;-86
2023/11/16 04:40:36;;;;;;;4.10;1.00;;;;;;;;;;4851370;29;20199;-86
2023/11/16 04:43:44;;;;;;;4.43;1.33;;;;;;;;;;4861464;29;20210;-86
2023/11/16 04:46:49;;;;;;;4.27;1.30;;;;;;;;;;4852623;29;20226;-86
2023/11/16 04:49:52;;;;;;;3.17;1.27;;;;;;;;;;4864855;29;20190;-86
2023/11/16 04:52:57;;;;;;;6.70;1.50;;;;;;;;;;4854022;29;20191;-86
2023/11/16 04:56:02;;;;;;;5.13;1.23;;;;;;;;;;4843697;29;20238;-86
2023/11/16 04:59:06;;;;;;;6.87;1.40;;;;;;;;;;4843775;29;20191;-86
2023/11/16 05:02:10;;;;;;;8.50;1.40;;;;;;;;;;4854291;29;20637;-86
2023/11/16 05:05:16;;;;;;;3.23;1.20;;;;;;;;;;4864481;29;20183;-86
2023/11/16 05:08:20;;;;;;;8.40;1.60;;;;;;;;;;4853995;29;20199;-86
2023/11/16 05:11:24;;;;;;;5.20;1.10;;;;;;;;;;4865263;29;20637;-86
2023/11/16 05:14:28;;;;;;;2.87;1.13;;;;;;;;;;4864849;29;20187;-86
2023/11/16 05:17:34;;;;;;;1.57;1.10;;;;;;;;;;4853600;29;20230;-86
2023/11/16 05:20:39;;;;;;;4.67;1.20;;;;;;;;;;4853097;29;20536;-86
2023/11/16 05:23:43;;;;;;;3.10;1.20;;;;;;;;;;4853829;29;20214;-86
2023/11/16 05:26:47;;;;;;;2.10;1.03;;;;;;;;;;4853568;29;20235;-86
2023/11/16 05:29:51;;;;;;;4.60;1.07;;;;;;;;;;4864608;29;20209;-86
2023/11/16 05:32:56;;;;;;;4.23;1.60;;;;;;;;;;4854556;29;20195;-86
2023/11/16 05:36:00;;;;;;;5.03;1.67;;;;;;;;;;4853472;29;20227;-86
2023/11/16 05:39:05;;;;;;;1.77;1.20;;;;;;;;;;4864032;29;20195;-86
2023/11/16 05:42:09;;;;;;;3.77;1.30;;;;;;;;;;4842790;29;20187;-86
2023/11/16 05:45:13;;;;;;;1.70;0.90;;;;;;;;;;4853091;29;20194;-86
2023/11/16 05:48:17;;;;;;;3.83;1.10;;;;;;;;;;4853274;29;20203;-86
2023/11/16 05:51:21;;;;;;;3.37;1.30;;;;;;;;;;4842933;29;20534;-86
2023/11/16 05:54:25;;;;;;;7.10;1.90;;;;;;;;;;4843250;29;20187;-86
2023/11/16 05:57:29;;;;;;;6.90;1.30;;;;;;;;;;4852311;29;20238;-86
2023/11/16 06:00:38;;;;;;;5.07;1.17;;;;;;;;;;4854933;29;20313;-86
2023/11/16 06:03:42;;;;;;;3.83;1.40;;;;;;;;;;4843419;29;20223;-86
2023/11/16 06:06:46;;;;;;;5.70;1.27;;;;;;;;;;4863819;29;20230;-86
2023/11/16 06:09:51;;;;;;;6.20;1.40;;;;;;;;;;4864111;29;20530;-86
2023/11/16 06:12:57;;;;;;;5.27;1.47;;;;;;;;;;4842506;29;20195;-86
2023/11/16 06:16:02;;;;;;;5.70;1.67;;;;;;;;;;4843484;29;20238;-87
2023/11/16 06:19:06;;;;;;;4.87;1.50;;;;;;;;;;4843164;29;20187;-86
2023/11/16 06:22:10;;;;;;;5.70;1.70;;;;;;;;;;4853756;29;20191;-86
2023/11/16 06:25:16;;;;;;;4.97;1.33;;;;;;;;;;4852670;29;20219;-86
2023/11/16 06:28:20;;;;;;;5.70;1.33;;;;;;;;;;4864259;29;20191;-86
2023/11/16 06:31:24;;;;;;;6.63;2.97;;;;;;;;;;4842228;29;20191;-87
2023/11/16 06:34:29;;;;;;;3.67;1.40;;;;;;;;;;4853166;29;20187;-86
2023/11/16 06:37:33;;;;;;;17.97;7.87;;;;;;;;;;4863565;29;20568;-86
2023/11/16 06:40:37;;;;;;;14.27;5.83;;;;;;;;;;4842738;29;20195;-87
2023/11/16 06:43:41;;;;;;;8.63;2.27;;;;;;;;;;4853225;29;20218;-86
2023/11/16 06:46:46;;;;;;;5.30;1.30;;;;;;;;;;4864210;29;20222;-86
2023/11/16 06:49:50;;;;;;;11.00;3.17;;;;;;;;;;4852456;29;20186;-86
2023/11/16 06:52:54;;;;;;;7.40;6.50;;;;;;;;;;4841904;29;20534;-86
2023/11/16 06:55:59;;;;;;;13.17;8.90;;;;;;;;;;4852276;29;20711;-86
2023/11/16 06:59:04;;;;;;;11.20;7.77;;;;;;;;;;4851950;29;20541;-86
2023/11/16 07:02:08;;;;;;;12.57;9.00;;;;;;;;;;4852530;29;20186;-86
2023/11/16 07:05:13;;;;;;;18.43;10.00;;;;;;;;;;4841884;29;20219;-86
2023/11/16 07:08:17;;;;;;;22.70;13.83;;;;;;;;;;4863055;29;20195;-86
2023/11/16 07:11:21;;;;;;;25.37;15.83;;;;;;;;;;4863596;29;20204;-87
2023/11/16 07:14:28;;;;;;;6.37;4.13;;;;;;;;;;4864041;29;20187;-88
2023/11/16 07:17:34;;;;;;;7.23;3.50;;;;;;;;;;4863684;29;20219;-87
2023/11/16 07:20:38;;;;;;;4.70;2.00;;;;;;;;;;4863324;29;20652;-88
2023/11/16 07:23:42;;;;;;;5.90;2.17;;;;;;;;;;4852619;29;20227;-88
2023/11/16 07:26:48;;;;;;;4.10;1.30;;;;;;;;;;4852579;29;20719;-87
2023/11/16 07:29:52;;;;;;;9.40;1.40;;;;;;;;;;4843506;29;20194;-85
2023/11/16 07:32:57;;;;;;;3.63;1.20;;;;;;;;;;4863996;29;20649;-86
2023/11/16 07:36:02;;;;;;;3.87;1.27;;;;;;;;;;4862911;29;20222;-86
2023/11/16 07:39:06;;;;;;;1.83;1.17;;;;;;;;;;4863122;29;20191;-86
2023/11/16 07:42:13;;;;;;;4.30;1.33;;;;;;;;;;4851639;29;20194;-86
2023/11/16 07:45:17;;;;;;;6.70;1.23;;;;;;;;;;4841213;29;20218;-86
2023/11/16 07:48:22;;;;;;;2.67;1.20;;;;;;;;;;4863145;29;20530;-87
2023/11/16 07:51:28;;;;;;;4.57;1.30;;;;;;;;;;4862913;29;20652;-86
2023/11/16 07:54:33;;;;;;;2.63;1.17;;;;;;;;;;4862146;29;20191;-86
2023/11/16 07:57:37;;;;;;;3.60;1.13;;;;;;;;;;4851496;29;20230;-86
2023/11/16 08:00:55;;;;;;;5.63;1.40;;;;;;;;;;4862626;29;20195;-86
2023/11/16 08:03:59;;;;;;;5.90;1.73;;;;;;;;;;4863252;29;20215;-86
2023/11/16 08:07:03;;;;;;;7.00;3.30;;;;;;;;;;4862553;29;20230;-86
2023/11/16 08:10:09;;;;;;;6.27;3.07;;;;;;;;;;4862089;29;20549;-87
2023/11/16 08:13:18;;;;;;;6.90;3.20;;;;;;;;;;4851219;29;20195;-87
2023/11/16 08:16:22;;;;;;;4.10;2.60;;;;;;;;;;4862326;29;20222;-86
2023/11/16 08:19:27;;;;;;;9.50;3.80;;;;;;;;;;4840860;29;20191;-86
2023/11/16 08:22:34;;;;;;;13.07;4.23;;;;;;;;;;4843545;29;20187;-86
2023/11/16 08:25:38;;;;;;;5.30;3.27;;;;;;;;;;4854629;29;20704;-86
2023/11/16 08:28:44;;;;;;;6.40;3.07;;;;;;;;;;4844474;29;20190;-86
2023/11/16 08:31:52;;;;;;;3.83;1.50;;;;;;;;;;4854980;29;20191;-87
2023/11/16 08:34:56;;;;;;;5.60;1.40;;;;;;;;;;4854819;29;20187;-87
2023/11/16 08:38:00;;;;;;;4.07;1.20;;;;;;;;;;4854844;29;20187;-86
2023/11/16 08:41:05;;;;;;;7.40;1.90;;;;;;;;;;4865081;29;20191;-87
2023/11/16 08:44:10;;;;;;;4.17;1.60;;;;;;;;;;4865719;29;20219;-86
2023/11/16 08:47:14;;;;;;;4.03;1.43;;;;;;;;;;4864606;29;20226;-86
2023/11/16 08:50:20;;;;;;;4.77;1.93;;;;;;;;;;4854235;29;20187;-86
2023/11/16 08:53:28;;;;;;;4.77;1.57;;;;;;;;;;4865767;29;20191;-86
2023/11/16 08:56:32;;;;;;;8.27;4.43;;;;;;;;;;4864382;29;20238;-84
2023/11/16 08:59:37;;;;;;;8.20;2.80;;;;;;;;;;4856397;29;20195;-84
2023/11/16 09:02:43;;;;;;;5.87;1.73;;;;;;;;;;4868443;29;20191;-84
2023/11/16 09:05:47;;;;;;;5.07;1.30;;;;;;;;;;4866947;29;20238;-84
2023/11/16 09:08:51;;;;;;;5.17;2.10;;;;;;;;;;4856252;29;20195;-84
2023/11/16 09:11:57;;;;;;;5.40;2.10;;;;;;;;;;4856856;29;20190;-84
2023/11/16 09:15:01;;;;;;;6.20;2.30;;;;;;;;;;4845733;29;20187;-84
2023/11/16 09:18:05;;;;;;;6.53;1.90;;;;;;;;;;4845967;29;20191;-84
2023/11/16 09:21:09;;;;;;;10.17;2.77;;;;;;;;;;4846634;29;20195;-84
2023/11/16 09:24:14;;;;;;;6.93;2.10;;;;;;;;;;4867314;29;20195;-84
2023/11/16 09:27:18;;;;;;;5.53;1.50;;;;;;;;;;4856568;29;20230;-84
2023/11/16 09:30:24;;;;;;;3.20;1.67;;;;;;;;;;4856477;29;20191;-84
2023/11/16 09:33:29;;;;;;;7.20;1.60;;;;;;;;;;4856298;29;20195;-84
2023/11/16 09:36:33;;;;;;;5.23;1.83;;;;;;;;;;4866350;29;20222;-84
2023/11/16 09:39:38;;;;;;;5.80;1.47;;;;;;;;;;4846740;29;20637;-84
2023/11/16 09:42:48;;;;;;;5.63;1.30;;;;;;;;;;4846571;29;20194;-84
2023/11/16 09:45:54;;;;;;;7.77;4.37;;;;;;;;;;4845480;29;20230;-84
2023/11/16 09:48:58;;;;;;;6.30;1.73;;;;;;;;;;4867787;29;20195;-84
2023/11/16 09:52:04;;;;;;;5.50;1.60;;;;;;;;;;4867059;29;20530;-85
2023/11/16 09:55:13;;;;;;;4.37;1.87;;;;;;;;;;4867465;29;20641;-84
2023/11/16 09:58:23;;;;;;;3.50;1.60;;;;;;;;;;4856095;29;20213;-85
2023/11/16 10:01:37;;;;;;;4.37;1.53;;;;;;;;;;4867754;29;20191;-84
2023/11/16 10:04:43;;;;;;;5.63;1.53;;;;;;;;;;4866374;29;20215;-84
2023/11/16 10:07:51;;;;;;;4.57;1.43;;;;;;;;;;4866871;29;20195;-85
2023/11/16 10:11:06;;;;;;;4.63;1.90;;;;;;;;;;4867177;29;20187;-84
2023/11/16 10:14:11;;;;;;;2.57;0.93;;;;;;;;;;4856489;29;20191;-84
2023/11/16 10:17:15;;;;;;;3.57;1.00;;;;;;;;;;4856202;29;20230;-84
2023/11/16 10:20:20;;;;;;;7.97;1.80;;;;;;;;;;4866815;29;20199;-84
2023/11/16 10:23:24;;;;;;;4.53;1.03;;;;;;;;;;4866585;29;20537;-85
2023/11/16 10:26:28;;;;;;;5.50;1.40;;;;;;;;;;4866136;29;20242;-84
2023/11/16 10:29:33;;;;;;;5.87;1.60;;;;;;;;;;4855177;29;20190;-85
2023/11/16 10:32:39;;;;;;;4.50;1.30;;;;;;;;;;4866711;29;20191;-85
2023/11/16 10:35:48;;;;;;;3.40;1.20;;;;;;;;;;4844375;29;20692;-85
2023/11/16 10:38:57;;;;;;;6.17;1.57;;;;;;;;;;4855865;29;20191;-86
2023/11/16 10:42:02;;;;;;;3.50;1.17;;;;;;;;;;4853894;29;20187;-85
2023/11/16 10:45:08;;;;;;;5.33;1.60;;;;;;;;;;4842136;29;20223;-85
2023/11/16 10:48:13;;;;;;;5.13;1.20;;;;;;;;;;4852717;29;20187;-86
2023/11/16 10:51:21;;;;;;;5.97;1.50;;;;;;;;;;4852098;29;20633;-85
2023/11/16 10:54:27;;;;;;;4.70;1.20;;;;;;;;;;4863248;29;20630;-86
2023/11/16 10:57:33;;;;;;;7.00;1.20;;;;;;;;;;4851698;29;20238;-86
2023/11/16 11:00:39;;;;;;;5.57;1.17;;;;;;;;;;4863791;29;20183;-85
2023/11/16 11:03:45;;;;;;;5.50;1.27;;;;;;;;;;4862540;29;20191;-86
2023/11/16 11:06:50;;;;;;;5.33;1.20;;;;;;;;;;4861988;29;20242;-86
2023/11/16 11:09:56;;;;;;;2.93;1.13;;;;;;;;;;4840952;29;20195;-86
2023/11/16 11:13:03;;;;;;;5.50;1.30;;;;;;;;;;4841253;29;20195;-86
2023/11/16 11:16:08;;;;;;;4.43;1.47;;;;;;;;;;4851556;29;20223;-86
2023/11/16 11:19:12;;;;;;;2.40;1.13;;;;;;;;;;4861408;29;20187;-86
2023/11/16 11:22:17;;;;;;;3.43;1.40;;;;;;;;;;4851436;29;20637;-85
2023/11/16 11:25:25;;;;;;;6.23;1.40;;;;;;;;;;4850825;29;20222;-86
2023/11/16 11:28:30;;;;;;;5.73;1.13;;;;;;;;;;4850720;29;20195;-86
2023/11/16 11:31:38;;;;;;;3.70;1.50;;;;;;;;;;4840564;29;20186;-86
2023/11/16 11:34:43;;;;;;;3.20;1.10;;;;;;;;;;4851413;29;20187;-86
2023/11/16 11:37:47;;;;;;;3.60;1.03;;;;;;;;;;4850788;29;20195;-86
2023/11/16 11:41:08;;;;;;;2.93;1.17;;;;;;;;;;4862336;29;20191;-85
2023/11/16 11:44:13;;;;;;;2.70;0.90;;;;;;;;;;4862368;29;20187;-86
2023/11/16 11:47:22;;;;;;;4.53;1.40;;;;;;;;;;4840024;29;20222;-86
2023/11/16 11:50:30;;;;;;;2.77;1.10;;;;;;;;;;4862047;29;20187;-86
2023/11/16 11:53:34;;;;;;;3.27;0.87;;;;;;;;;;4862080;29;20191;-86
2023/11/16 11:56:44;;;;;;;6.07;1.30;;;;;;;;;;4854015;29;20269;-86
2023/11/16 11:59:49;;;;;;;2.77;0.90;;;;;;;;;;4854444;29;20195;-86
2023/11/16 12:02:54;;;;;;;3.90;1.20;;;;;;;;;;4865159;29;20190;-85
2023/11/16 12:06:00;;;;;;;4.17;1.50;;;;;;;;;;4865270;29;20581;-86
2023/11/16 12:09:24;;;;;;;3.47;1.17;;;;;;;;;;4857347;29;20195;-85
2023/11/16 12:12:50;;;;;;;4.43;1.23;;;;;;;;;;4856905;29;20187;-86
2023/11/16 12:15:55;;;;;;;7.10;1.20;;;;;;;;;;4854465;29;20226;-86
2023/11/16 12:18:58;;;;;;;3.53;1.10;;;;;;;;;;4865498;29;20195;-85
2023/11/16 12:22:07;;;;;;;3.93;1.33;;;;;;;;;;4854397;29;20541;-85
2023/11/16 12:25:16;;;;;;;5.23;1.20;;;;;;;;;;4865074;29;20681;-85
2023/11/16 12:28:24;;;;;;;3.67;1.03;;;;;;;;;;4854437;29;20199;-85
2023/11/16 12:31:28;;;;;;;4.43;1.13;;;;;;;;;;4843627;29;20534;-85
2023/11/16 12:34:32;;;;;;;3.77;1.27;;;;;;;;;;4854104;29;20633;-86
2023/11/16 12:37:37;;;;;;;4.97;1.37;;;;;;;;;;4854264;29;20226;-85
2023/11/16 12:40:41;;;;;;;5.20;1.17;;;;;;;;;;4854722;29;20534;-85
2023/11/16 12:43:46;;;;;;;4.27;1.17;;;;;;;;;;4854298;29;20195;-85
2023/11/16 12:46:51;;;;;;;4.33;1.50;;;;;;;;;;4834257;29;20243;-85
2023/11/16 12:49:55;;;;;;;4.33;1.40;;;;;;;;;;4864194;29;20191;-85
2023/11/16 12:52:59;;;;;;;5.37;1.30;;;;;;;;;;4864226;29;20621;-85
2023/11/16 12:56:06;;;;;;;3.47;1.20;;;;;;;;;;4852940;29;20230;-85
2023/11/16 12:59:11;;;;;;;6.03;1.47;;;;;;;;;;4853658;29;20191;-85
2023/11/16 13:02:15;;;;;;;5.30;1.40;;;;;;;;;;4853719;29;20191;-85
2023/11/16 13:05:20;;;;;;;2.47;1.23;;;;;;;;;;4843105;29;20649;-85
2023/11/16 13:08:23;;;;;;;3.33;1.40;;;;;;;;;;4863866;29;20199;-85
2023/11/16 13:11:28;;;;;;;4.80;1.30;;;;;;;;;;4842880;29;20529;-85
2023/11/16 13:14:33;;;;;;;6.20;1.33;;;;;;;;;;4853868;29;20191;-85
2023/11/16 13:17:37;;;;;;;6.60;1.33;;;;;;;;;;4863978;29;20226;-85
2023/11/16 13:20:42;;;;;;;7.27;2.37;;;;;;;;;;4865140;29;20195;-85
2023/11/16 13:23:47;;;;;;;3.73;1.60;;;;;;;;;;4853792;29;20633;-85
2023/11/16 13:26:51;;;;;;;8.77;1.90;;;;;;;;;;4853752;29;20242;-85
2023/11/16 13:29:56;;;;;;;2.87;1.53;;;;;;;;;;4864185;29;20191;-85
2023/11/16 13:33:02;;;;;;;5.97;1.57;;;;;;;;;;4853807;29;20534;-85
2023/11/16 13:36:07;;;;;;;6.67;1.73;;;;;;;;;;4853541;29;20222;-85
2023/11/16 13:39:14;;;;;;;2.57;1.00;;;;;;;;;;4843196;29;20191;-85
2023/11/16 13:42:18;;;;;;;3.07;1.20;;;;;;;;;;4853636;29;20637;-85
2023/11/16 13:45:22;;;;;;;5.13;1.20;;;;;;;;;;4863979;29;20191;-85
2023/11/16 13:48:26;;;;;;;5.13;1.30;;;;;;;;;;4853071;29;20537;-85
2023/11/16 13:51:30;;;;;;;3.17;1.17;;;;;;;;;;4842618;29;20199;-85
2023/11/16 13:54:35;;;;;;;3.33;1.20;;;;;;;;;;4852914;29;20628;-85
2023/11/16 13:57:40;;;;;;;2.70;1.17;;;;;;;;;;4864069;29;20230;-85
2023/11/16 14:00:45;;;;;;;6.17;1.40;;;;;;;;;;4852947;29;20191;-85
2023/11/16 14:03:50;;;;;;;5.30;1.30;;;;;;;;;;4853102;29;20191;-85
2023/11/16 14:06:54;;;;;;;3.57;1.20;;;;;;;;;;4852677;29;20234;-85
2023/11/16 14:09:58;;;;;;;4.60;1.30;;;;;;;;;;4853532;29;20194;-85
2023/11/16 14:13:02;;;;;;;8.33;1.50;;;;;;;;;;4864086;29;20199;-86
2023/11/16 14:16:07;;;;;;;9.47;1.90;;;;;;;;;;4863400;29;20565;-85
2023/11/16 14:19:10;;;;;;;6.83;2.57;;;;;;;;;;4863673;29;20195;-85
2023/11/16 14:22:15;;;;;;;15.80;6.10;;;;;;;;;;4852679;29;20191;-85
2023/11/16 14:25:20;;;;;;;12.03;4.93;;;;;;;;;;4863338;29;20195;-85
2023/11/16 14:28:24;;;;;;;6.60;3.10;;;;;;;;;;4864308;29;20649;-85
2023/11/16 14:31:28;;;;;;;4.57;2.30;;;;;;;;;;4842744;29;20190;-85
2023/11/16 14:34:33;;;;;;;9.60;2.20;;;;;;;;;;4863512;29;20190;-85
2023/11/16 14:37:37;;;;;;;4.17;1.70;;;;;;;;;;4852501;29;20227;-86
2023/11/16 14:40:41;;;;;;;3.37;1.70;;;;;;;;;;4854216;29;20187;-85
2023/11/16 14:43:45;;;;;;;3.67;1.50;;;;;;;;;;4852827;29;20191;-85
2023/11/16 14:46:50;;;;;;;4.60;1.80;;;;;;;;;;4864909;29;20238;-85
2023/11/16 14:49:54;;;;;;;5.23;1.40;;;;;;;;;;4853748;29;20191;-86
2023/11/16 14:52:59;;;;;;;5.77;1.50;;;;;;;;;;4843137;29;20195;-85
2023/11/16 14:56:03;;;;;;;3.70;1.50;;;;;;;;;;4852754;29;20230;-85
2023/11/16 14:59:08;;;;;;;5.67;1.60;;;;;;;;;;4864312;29;20195;-87
2023/11/16 15:02:12;;;;;;;1.77;0.80;;;;;;;;;;4852325;29;20195;-87
2023/11/16 15:05:16;;;;;;;3.50;1.17;;;;;;;;;;4863638;29;20190;-87
2023/11/16 15:08:20;;;;;;;5.10;4.10;;;;;;;;;;4852574;29;20179;-87
2023/11/16 15:11:27;;;;;;;4.20;2.23;;;;;;;;;;4842244;29;20194;-87
2023/11/16 15:14:31;;;;;;;4.47;1.47;;;;;;;;;;4861805;29;20186;-87
2023/11/16 15:17:35;;;;;;;1.57;0.93;;;;;;;;;;4850367;29;20223;-86
2023/11/16 15:20:40;;;;;;;1.90;0.90;;;;;;;;;;4861125;29;20190;-86
2023/11/16 15:23:44;;;;;;;2.37;1.30;;;;;;;;;;4861705;29;20198;-86
2023/11/16 15:26:49;;;;;;;8.87;5.77;;;;;;;;;;4850308;29;20235;-86
2023/11/16 15:29:54;;;;;;;2.23;1.10;;;;;;;;;;4861234;29;20625;-87
2023/11/16 15:32:58;;;;;;;1.87;0.70;;;;;;;;;;4861185;29;20190;-86
2023/11/16 15:36:02;;;;;;;2.20;0.80;;;;;;;;;;4850159;29;20238;-86
2023/11/16 15:39:10;;;;;;;5.30;1.20;;;;;;;;;;4861233;29;20187;-87
2023/11/16 15:42:14;;;;;;;2.43;1.10;;;;;;;;;;4850477;29;20199;-87
2023/11/16 15:45:18;;;;;;;7.97;1.20;;;;;;;;;;4840024;29;20194;-87
2023/11/16 15:48:23;;;;;;;2.60;1.20;;;;;;;;;;4861975;29;20195;-86
2023/11/16 15:51:29;;;;;;;3.33;1.10;;;;;;;;;;4839877;29;20191;-86
2023/11/16 15:54:33;;;;;;;1.83;0.80;;;;;;;;;;4839702;29;20191;-86
2023/11/16 15:57:40;;;;;;;3.70;1.10;;;;;;;;;;4839263;29;20230;-87
2023/11/16 16:00:48;;;;;;;3.73;1.40;;;;;;;;;;4834482;29;20530;-86
2023/11/16 16:03:52;;;;;;;6.13;1.97;;;;;;;;;;4860438;29;20194;-86
2023/11/16 16:06:56;;;;;;;6.73;2.27;;;;;;;;;;4839252;29;20581;-87
2023/11/16 16:10:05;;;;;;;3.37;1.47;;;;;;;;;;4849596;29;20186;-86
2023/11/16 16:13:10;;;;;;;2.73;1.43;;;;;;;;;;4861528;29;20191;-86
2023/11/16 16:16:15;;;;;;;3.30;1.40;;;;;;;;;;4828787;29;20227;-86
2023/11/16 16:19:19;;;;;;;4.13;1.43;;;;;;;;;;4859352;29;20253;-86
2023/11/16 16:22:23;;;;;;;2.13;1.70;;;;;;;;;;4849504;29;20195;-87
2023/11/16 16:25:27;;;;;;;4.63;1.70;;;;;;;;;;4850533;29;20190;-86
2023/11/16 16:28:34;;;;;;;3.70;1.60;;;;;;;;;;4862424;29;20191;-86
2023/11/16 16:31:41;;;;;;;5.67;1.13;;;;;;;;;;4850660;29;20533;-86
2023/11/16 16:34:53;;;;;;;1.77;1.03;;;;;;;;;;4861359;29;20191;-86
2023/11/16 16:37:57;;;;;;;3.00;1.10;;;;;;;;;;4861044;29;20534;-86
2023/11/16 16:41:06;;;;;;;3.93;1.47;;;;;;;;;;4850431;29;20191;-86
2023/11/16 16:44:10;;;;;;;4.80;1.30;;;;;;;;;;4843498;29;20199;-86
2023/11/16 16:47:17;;;;;;;0.80;0.80;;;;;;;;;;4864117;29;20235;-86
2023/11/16 16:50:22;;;;;;;2.30;1.07;;;;;;;;;;4853602;29;20195;-86
2023/11/16 16:53:26;;;;;;;3.60;1.80;;;;;;;;;;4843222;29;20194;-86
2023/11/16 16:56:30;;;;;;;4.07;1.50;;;;;;;;;;4864156;29;20234;-86
2023/11/16 16:59:34;;;;;;;4.97;1.67;;;;;;;;;;4853698;29;20191;-86
2023/11/16 17:02:41;;;;;;;4.77;1.70;;;;;;;;;;4865224;29;20191;-86
2023/11/16 17:05:47;;;;;;;2.60;1.70;;;;;;;;;;4864460;29;20226;-86
2023/11/16 17:08:51;;;;;;;3.67;2.03;;;;;;;;;;4842826;29;20184;-86
2023/11/16 17:11:56;;;;;;;4.97;2.30;;;;;;;;;;4864110;29;20195;-87
2023/11/16 17:14:59;;;;;;;6.00;2.60;;;;;;;;;;4864273;29;20190;-86
2023/11/16 17:18:04;;;;;;;8.83;2.73;;;;;;;;;;4853097;29;20183;-87
2023/11/16 17:21:09;;;;;;;5.17;2.40;;;;;;;;;;4864966;29;20195;-86
2023/11/16 17:24:14;;;;;;;5.93;3.13;;;;;;;;;;4845893;29;20195;-84
2023/11/16 17:27:18;;;;;;;9.03;3.97;;;;;;;;;;4846397;29;20238;-85
2023/11/16 17:30:22;;;;;;;5.70;2.67;;;;;;;;;;4868392;29;20187;-84
2023/11/16 17:33:27;;;;;;;7.07;2.60;;;;;;;;;;4856740;29;20187;-84
2023/11/16 17:36:32;;;;;;;7.57;3.03;;;;;;;;;;4845606;29;20226;-85
2023/11/16 17:39:36;;;;;;;3.87;2.73;;;;;;;;;;4866716;29;20191;-84
2023/11/16 17:42:43;;;;;;;7.97;2.73;;;;;;;;;;4843026;29;20195;-84
2023/11/16 17:45:49;;;;;;;8.33;2.77;;;;;;;;;;4853542;29;20226;-84
2023/11/16 17:48:58;;;;;;;4.70;2.30;;;;;;;;;;4864648;29;20187;-84
2023/11/16 17:52:03;;;;;;;5.23;2.10;;;;;;;;;;4865215;29;20191;-84
2023/11/16 17:55:09;;;;;;;6.33;2.20;;;;;;;;;;4855283;29;20215;-85
2023/11/16 17:58:13;;;;;;;3.47;2.10;;;;;;;;;;4854985;29;20199;-84
2023/11/16 18:01:17;;;;;;;4.10;2.10;;;;;;;;;;4844270;29;20550;-84
2023/11/16 18:04:22;;;;;;;2.63;1.50;;;;;;;;;;4867188;29;20187;-85
2023/11/16 18:07:28;;;;;;;2.60;1.60;;;;;;;;;;4866616;29;20230;-85
2023/11/16 18:10:33;;;;;;;2.80;1.60;;;;;;;;;;4855992;29;20199;-84
2023/11/16 18:13:38;;;;;;;5.20;2.03;;;;;;;;;;4845772;29;20191;-84
2023/11/16 18:16:43;;;;;;;5.47;1.77;;;;;;;;;;4856048;29;20235;-84
2023/11/16 18:19:47;;;;;;;4.23;1.90;;;;;;;;;;4868001;29;20195;-84
2023/11/16 18:22:51;;;;;;;6.17;2.10;;;;;;;;;;4856272;29;20191;-84
2023/11/16 18:25:57;;;;;;;9.10;1.90;;;;;;;;;;4855931;29;20227;-84
2023/11/16 18:29:03;;;;;;;4.90;2.33;;;;;;;;;;4866737;29;20215;-84
2023/11/16 18:32:08;;;;;;;6.50;2.00;;;;;;;;;;4855431;29;20190;-84